createdAt,value
2022-09-06T00:03:11.660Z,7.14
2022-09-06T00:08:15.120Z,7.15
2022-09-06T00:13:17.771Z,7.17
2022-09-06T00:18:21.207Z,7.11
2022-09-06T00:23:24.055Z,7.11
2022-09-06T00:28:27.810Z,7.08
2022-09-06T00:33:30.505Z,7.10
2022-09-06T00:38:33.529Z,7.00
2022-09-06T00:43:36.178Z,7.04
2022-09-06T00:48:40.052Z,6.97
2022-09-06T00:53:42.934Z,7.05
2022-09-06T00:58:47.040Z,7.05
2022-09-06T01:03:49.706Z,7.02
2022-09-06T01:09:04.052Z,7.03
2022-09-06T01:14:29.668Z,7.01
2022-09-06T01:20:14.333Z,7.04
2022-09-06T01:25:33.636Z,7.03
2022-09-06T01:30:40.130Z,6.99
2022-09-06T01:35:51.037Z,6.96
2022-09-06T01:40:53.713Z,6.99
2022-09-06T01:46:08.181Z,6.97
2022-09-06T01:51:38.501Z,6.88
2022-09-06T01:57:02.248Z,6.89
2022-09-06T02:02:24.663Z,6.85
2022-09-06T02:07:31.145Z,6.86
2022-09-06T02:12:37.424Z,6.89
2022-09-06T02:17:47.509Z,6.88
2022-09-06T02:22:54.215Z,6.89
2022-09-06T02:27:56.873Z,6.93
2022-09-06T02:33:06.843Z,6.86
2022-09-06T02:38:09.457Z,6.99
2022-09-06T02:43:12.306Z,6.92
2022-09-06T02:48:14.977Z,6.88
2022-09-06T02:53:18.224Z,6.85
2022-09-06T02:58:21.024Z,6.83
2022-09-06T03:03:25.016Z,6.98
2022-09-06T03:08:33.406Z,7.04
2022-09-06T03:13:36.294Z,6.99
2022-09-06T03:18:39.116Z,6.97
2022-09-06T03:23:42.488Z,6.95
2022-09-06T03:28:45.128Z,6.92
2022-09-06T03:33:48.041Z,7.01
2022-09-06T03:38:51.319Z,6.97
2022-09-06T03:43:54.026Z,6.96
2022-09-06T03:48:58.171Z,6.84
2022-09-06T03:54:00.876Z,7.02
2022-09-06T03:59:03.607Z,7.05
2022-09-06T04:04:06.113Z,6.97
2022-09-06T04:09:08.660Z,7.12
2022-09-06T04:14:11.240Z,7.24
2022-09-06T04:19:13.833Z,7.32
2022-09-06T04:24:17.039Z,7.53
2022-09-06T04:29:19.694Z,7.68
2022-09-06T04:34:22.333Z,7.57
2022-09-06T04:39:24.980Z,7.62
2022-09-06T04:44:27.734Z,7.51
2022-09-06T04:49:30.313Z,7.71
2022-09-06T04:54:32.996Z,7.89
2022-09-06T04:59:35.611Z,7.96
2022-09-06T05:04:38.240Z,7.85
2022-09-06T05:09:40.829Z,8.10
2022-09-06T05:14:43.453Z,7.91
2022-09-06T05:19:46.056Z,8.01
2022-09-06T05:24:48.994Z,8.16
2022-09-06T05:29:51.698Z,8.30
2022-09-06T05:34:54.341Z,8.39
2022-09-06T05:40:00.322Z,8.39
2022-09-06T05:45:03.309Z,8.27
2022-09-06T05:55:10.238Z,8.14
2022-09-06T06:00:14.303Z,8.14
2022-09-06T06:05:17.124Z,8.51
2022-09-06T06:10:19.728Z,8.66
2022-09-06T06:15:22.499Z,8.72
2022-09-06T06:20:25.223Z,8.73
2022-09-06T06:25:27.894Z,9.00
2022-09-06T06:30:30.460Z,9.47
2022-09-06T06:35:36.062Z,9.58
2022-09-06T06:40:45.872Z,9.18
2022-09-06T06:45:50.189Z,9.15
2022-09-06T06:50:52.913Z,9.00
2022-09-06T06:55:55.712Z,8.68
2022-09-06T07:00:58.589Z,8.86
2022-09-06T07:06:16.666Z,9.06
2022-09-06T07:11:21.744Z,8.89
2022-09-06T07:16:28.423Z,8.96
2022-09-06T07:21:38.579Z,9.35
2022-09-06T07:26:41.841Z,9.76
2022-09-06T07:37:07.386Z,10.14
2022-09-06T07:42:10.856Z,9.94
2022-09-06T07:58:01.030Z,9.84
2022-09-06T08:03:03.850Z,10.19
2022-09-06T08:13:29.654Z,9.46
2022-09-06T08:18:32.788Z,9.25
2022-09-06T08:23:35.592Z,9.87
2022-09-06T08:28:38.413Z,10.26
2022-09-06T08:33:42.126Z,11.01
2022-09-06T08:38:45.930Z,10.78
2022-09-06T08:49:32.562Z,9.74
2022-09-06T08:54:48.875Z,10.08
2022-09-06T08:59:57.649Z,10.27
2022-09-06T09:05:04.825Z,10.70
2022-09-06T09:10:15.782Z,11.00
2022-09-06T09:15:20.648Z,11.36
2022-09-06T09:20:23.446Z,11.01
2022-09-06T09:25:34.416Z,10.88
2022-09-06T09:30:57.206Z,10.68
2022-09-06T09:36:02.678Z,10.50
2022-09-06T09:41:07.948Z,10.40
2022-09-06T09:46:16.570Z,10.56
2022-09-06T09:51:27.142Z,10.71
2022-09-06T09:56:53.171Z,11.13
2022-09-06T10:02:00.152Z,10.95
2022-09-06T10:07:13.519Z,11.21
2022-09-06T10:12:29.312Z,10.84
2022-09-06T10:17:37.853Z,10.52
2022-09-06T10:23:03.223Z,10.59
2022-09-06T10:28:21.529Z,10.47
2022-09-06T10:33:47.019Z,10.14
2022-09-06T10:39:03.921Z,9.81
2022-09-06T10:44:32.712Z,9.86
2022-09-06T10:49:37.761Z,10.57
2022-09-06T10:54:42.173Z,10.96
2022-09-06T10:59:53.067Z,11.31
2022-09-06T11:10:29.380Z,11.70
2022-09-06T11:15:51.477Z,11.87
2022-09-06T11:20:53.952Z,11.64
2022-09-06T11:26:12.162Z,11.72
2022-09-06T11:36:56.079Z,12.56
2022-09-06T11:41:59.325Z,12.48
2022-09-06T11:47:02.593Z,12.31
2022-09-06T11:52:43.700Z,12.02
2022-09-06T11:57:48.019Z,11.92
2022-09-06T12:02:52.886Z,11.77
2022-09-06T12:08:10.660Z,11.29
2022-09-06T12:13:42.585Z,11.29
2022-09-06T12:18:48.239Z,11.63
2022-09-06T12:23:51.049Z,11.96
2022-09-06T12:28:53.806Z,11.85
2022-09-06T12:33:58.056Z,11.51
2022-09-06T12:39:04.128Z,11.15
2022-09-06T12:44:08.113Z,10.98
2022-09-06T12:49:13.025Z,11.12
2022-09-06T12:54:19.427Z,11.19
2022-09-06T12:59:25.207Z,11.32
2022-09-06T13:04:28.022Z,11.36
2022-09-06T13:09:31.977Z,11.19
2022-09-06T13:14:35.822Z,10.73
2022-09-06T13:19:40.503Z,11.03
2022-09-06T13:24:47.852Z,11.22
2022-09-06T13:30:02.616Z,11.23
2022-09-06T13:35:06.246Z,11.39
2022-09-06T13:40:59.959Z,11.19
2022-09-06T13:46:08.206Z,10.59
2022-09-06T13:51:11.383Z,10.57
2022-09-06T13:56:14.143Z,10.45
2022-09-06T14:01:17.157Z,10.58
2022-09-06T14:06:19.985Z,10.94
2022-09-06T14:11:23.124Z,10.91
2022-09-06T14:16:25.995Z,11.08
2022-09-06T14:21:28.674Z,11.23
2022-09-06T14:26:31.953Z,11.42
2022-09-06T14:31:34.938Z,11.51
2022-09-06T14:36:37.717Z,11.53
2022-09-06T14:41:40.587Z,11.57
2022-09-06T14:46:43.477Z,11.53
2022-09-06T14:51:47.027Z,11.32
2022-09-06T14:56:49.734Z,11.17
2022-09-06T15:01:52.626Z,10.94
2022-09-06T15:06:58.862Z,10.95
2022-09-06T15:12:04.389Z,10.96
2022-09-06T15:17:09.039Z,10.94
2022-09-06T15:22:11.759Z,10.81
2022-09-06T15:27:14.395Z,10.69
2022-09-06T15:32:17.083Z,10.58
2022-09-06T15:37:19.832Z,10.36
2022-09-06T15:42:22.573Z,9.96
2022-09-06T15:47:25.366Z,9.80
2022-09-06T15:52:28.379Z,9.58
2022-09-06T15:57:31.178Z,9.39
2022-09-06T16:02:33.863Z,8.99
2022-09-06T16:07:41.052Z,9.25
2022-09-06T16:12:46.408Z,9.02
2022-09-06T16:17:52.203Z,9.14
2022-09-06T16:22:55.017Z,9.10
2022-09-06T16:27:57.639Z,9.10
2022-09-06T16:33:00.339Z,8.99
2022-09-06T16:38:06.075Z,8.96
2022-09-06T16:43:11.795Z,8.89
2022-09-06T16:48:14.490Z,9.03
2022-09-06T16:53:22.058Z,8.95
2022-09-06T16:58:25.684Z,8.90
2022-09-06T17:03:28.526Z,9.09
2022-09-06T17:08:32.625Z,9.11
2022-09-06T17:13:39.046Z,9.18
2022-09-06T17:18:42.078Z,9.21
2022-09-06T17:23:44.758Z,9.18
2022-09-06T17:28:49.819Z,9.06
2022-09-06T17:33:52.956Z,9.05
2022-09-06T17:39:10.650Z,8.93
2022-09-06T17:44:15.457Z,8.91
2022-09-06T17:49:18.811Z,8.80
2022-09-06T17:54:21.672Z,8.86
2022-09-06T17:59:24.429Z,8.75
2022-09-06T18:04:27.098Z,8.73
2022-09-06T18:09:30.067Z,8.71
2022-09-06T18:14:32.841Z,8.59
2022-09-06T18:19:35.734Z,8.49
2022-09-06T18:24:38.353Z,8.46
2022-09-06T18:29:41.106Z,8.31
2022-09-06T18:34:43.974Z,8.36
2022-09-06T18:39:46.706Z,8.47
2022-09-06T18:44:51.488Z,8.38
2022-09-06T18:49:54.157Z,8.32
2022-09-06T18:54:56.803Z,8.26
2022-09-06T18:59:59.696Z,8.17
2022-09-06T19:05:02.751Z,8.20
2022-09-06T19:10:06.224Z,8.26
2022-09-06T19:15:09.352Z,8.17
2022-09-06T19:20:12.230Z,8.11
2022-09-06T19:25:14.938Z,8.06
2022-09-06T19:30:17.872Z,7.97
2022-09-06T19:35:21.704Z,8.20
2022-09-06T19:40:24.462Z,8.16
2022-09-06T19:45:27.164Z,8.06
2022-09-06T19:50:36.764Z,8.06
2022-09-06T19:55:39.953Z,8.07
2022-09-06T20:00:43.265Z,7.99
2022-09-06T20:05:46.341Z,7.95
2022-09-06T20:10:56.731Z,7.91
2022-09-06T20:15:59.583Z,7.86
2022-09-06T20:21:02.986Z,7.85
2022-09-06T20:26:16.387Z,7.92
2022-09-06T20:31:20.766Z,7.85
2022-09-06T20:36:23.514Z,7.70
2022-09-06T20:41:26.980Z,7.76
2022-09-06T20:46:32.445Z,7.74
2022-09-06T20:51:37.296Z,7.74
2022-09-06T20:56:42.109Z,7.67
2022-09-06T21:01:46.905Z,7.66
2022-09-06T21:06:51.069Z,7.71
2022-09-06T21:11:54.432Z,7.57
2022-09-06T21:16:59.603Z,7.57
2022-09-06T21:22:02.498Z,7.63
2022-09-06T21:27:06.873Z,7.62
2022-09-06T21:32:09.502Z,7.62
2022-09-06T21:37:12.130Z,7.57
2022-09-06T21:42:14.831Z,7.45
2022-09-06T21:47:17.435Z,7.58
2022-09-06T21:52:20.161Z,7.51
2022-09-06T21:57:22.855Z,7.41
2022-09-06T22:02:27.895Z,7.51
2022-09-06T22:07:30.906Z,7.41
2022-09-06T22:12:33.698Z,7.41
2022-09-06T22:17:37.414Z,7.20
2022-09-06T22:22:40.174Z,7.25
2022-09-06T22:27:42.963Z,7.31
2022-09-06T22:32:45.614Z,7.28
2022-09-06T22:37:48.271Z,7.22
2022-09-06T22:42:51.106Z,7.19
2022-09-06T22:47:53.915Z,7.30
2022-09-06T22:52:57.005Z,7.22
2022-09-06T22:58:00.338Z,7.36
2022-09-06T23:03:03.214Z,7.13
2022-09-06T23:08:06.076Z,7.21
2022-09-06T23:13:10.594Z,7.13
2022-09-06T23:18:14.691Z,6.89
2022-09-06T23:23:17.331Z,6.95
2022-09-06T23:28:20.381Z,6.81
2022-09-06T23:33:23.063Z,6.83
2022-09-06T23:38:25.784Z,6.81
2022-09-06T23:43:29.038Z,6.81
2022-09-06T23:48:31.854Z,6.84
2022-09-06T23:53:34.761Z,6.90
2022-09-06T23:58:38.957Z,6.97
